Time;durP1;ratioP1;P1;durP2;ratioP2;P2;SDS_P1;SDS_P2;PMS_P1;PMS_P2;Temp;Humidity;BMP_temperature;BMP_pressure;BME280_temperature;BME280_humidity;BME280_pressure;Samples;Min_cycle;Max_cycle;Signal;HPM_P1;HPM_P2
2022/09/04 00:01:29;;;;;;;;;;;;;;;15.48;93.63;95624.53;5092859;28;1079;-52
2022/09/04 00:04:01;;;;;;;;;;;;;;;15.37;94.35;95629.34;5093669;28;1048;-52
2022/09/04 00:06:31;;;;;;;;;;;;;;;15.44;94.35;95621.38;5093253;28;1923;-53
2022/09/04 00:09:12;;;;;;;;;;;;;;;15.49;93.88;95621.69;5093575;28;996;-52
2022/09/04 00:12:16;;;;;;;;;;;;;;;15.63;93.93;95622.75;5093230;28;1177;-52
2022/09/04 00:14:57;;;;;;;;;;;;;;;15.48;93.72;95627.25;5014117;28;1429;-52
2022/09/04 00:17:34;;;;;;;;;;;;;;;15.41;93.68;95636.06;5014949;28;1104;-52
2022/09/04 00:20:11;;;;;;;;;;;;;;;15.44;93.85;95634.84;5067964;28;1103;-52
2022/09/04 00:22:48;;;;;;;;;;;;;;;15.32;94.27;95631.72;5097238;28;961;-52
2022/09/04 00:25:17;;;;;;;;;;;;;;;15.27;94.95;95639.53;5096985;28;1996;-52
2022/09/04 00:27:46;;;;;;;;;;;;;;;15.32;94.36;95642.50;5096235;28;1652;-52
2022/09/04 00:30:19;;;;;;;;;;;;;;;15.19;94.09;95636.88;5096696;28;1398;-52
2022/09/04 00:32:54;;;;;;;;;;;;;;;15.08;94.58;95645.34;5097031;28;1243;-52
2022/09/04 00:35:30;;;;;;;;;;;;;;;15.17;94.21;95642.44;5096869;28;1028;-52
2022/09/04 00:37:56;;;;;;;;;;;;;;;15.19;94.64;95636.88;5096848;28;1040;-52
2022/09/04 00:40:32;;;;;;;;;;;;;;;15.33;93.70;95632.59;5096507;28;1167;-52
2022/09/04 00:43:17;;;;;;;;;;;;;;;15.41;92.60;95640.59;5096721;28;995;-52
2022/09/04 00:45:43;;;;;;;;;;;;;;;15.45;92.31;95630.31;5096818;28;1917;-52
2022/09/04 00:48:19;;;;;;;;;;;;;;;15.33;93.42;95633.41;5096409;28;1242;-52
2022/09/04 00:50:45;;;;;;;;;;;;;;;15.35;94.41;95628.69;5096961;28;949;-52
2022/09/04 00:53:29;;;;;;;;;;;;;;;15.36;94.45;95627.66;5096300;28;1088;-52
2022/09/04 00:55:58;;;;;;;;;;;;;;;15.23;94.39;95627.41;5096476;28;1067;-52
2022/09/04 00:58:43;;;;;;;;;;;;;;;15.21;94.78;95632.13;5097960;28;1315;-52
2022/09/04 01:01:13;;;;;;;;;;;;;;;15.19;93.29;95626.09;5116910;28;999;-52
2022/09/04 01:03:45;;;;;;;;;;;;;;;14.96;94.46;95640.38;5117061;28;961;-52
2022/09/04 01:06:23;;;;;;;;;;;;;;;15.00;95.14;95644.38;5116533;28;1906;-52
2022/09/04 01:09:09;;;;;;;;;;;;;;;15.24;93.96;95647.97;5116765;28;1065;-52
2022/09/04 01:11:38;;;;;;;;;;;;;;;15.02;93.34;95652.28;5116472;28;1060;-52
2022/09/04 01:14:13;;;;;;;;;;;;;;;14.80;93.90;95653.91;5100179;28;2494;-52
2022/09/04 01:16:49;;;;;;;;;;;;;;;14.66;94.45;95643.88;5095977;28;1013;-52
2022/09/04 01:19:21;;;;;;;;;;;;;;;14.68;95.20;95645.38;5096376;28;1280;-52
2022/09/04 01:22:03;;;;;;;;;;;;;;;14.84;95.01;95657.94;5096193;28;999;-52
2022/09/04 01:24:32;;;;;;;;;;;;;;;14.88;94.42;95653.88;5095872;28;1906;-52
2022/09/04 01:27:06;;;;;;;;;;;;;;;14.92;93.66;95655.19;5095416;28;1009;-51
2022/09/04 01:29:48;;;;;;;;;;;;;;;14.96;94.45;95661.91;5096018;28;1033;-53
2022/09/04 01:32:14;;;;;;;;;;;;;;;14.80;94.45;95660.13;5095736;28;1259;-52
2022/09/04 01:34:40;;;;;;;;;;;;;;;14.62;94.81;95663.03;5096138;28;984;-52
2022/09/04 01:37:35;;;;;;;;;;;;;;;14.60;95.10;95657.00;5095442;28;1041;-52
2022/09/04 01:40:16;;;;;;;;;;;;;;;14.64;95.45;95644.03;5034755;28;1201;-52
2022/09/04 01:42:47;;;;;;;;;;;;;;;14.69;95.45;95649.75;5077943;28;992;-52
2022/09/04 01:45:17;;;;;;;;;;;;;;;14.76;94.77;95650.72;5108590;28;1906;-52
2022/09/04 01:47:45;;;;;;;;;;;;;;;14.68;94.20;95655.31;5115742;28;981;-52
2022/09/04 01:50:15;;;;;;;;;;;;;;;14.48;94.05;95650.31;5115577;28;1198;-52
2022/09/04 01:52:57;;;;;;;;;;;;;;;14.52;94.67;95648.94;5115979;28;981;-52
2022/09/04 01:55:36;;;;;;;;;;;;;;;14.55;94.90;95643.22;5116121;28;1057;-52
2022/09/04 01:58:09;;;;;;;;;;;;;;;14.59;94.82;95641.88;5115509;28;972;-52
2022/09/04 02:00:43;;;;;;;;;;;;;;;14.71;95.33;95636.97;5115756;28;1036;-52
2022/09/04 02:03:09;;;;;;;;;;;;;;;14.80;94.26;95643.16;5115396;28;1036;-52
2022/09/04 02:05:47;;;;;;;;;;;;;;;14.72;94.96;95646.72;5115822;28;1964;-51
2022/09/04 02:08:32;;;;;;;;;;;;;;;14.63;94.52;95640.53;5115385;28;1008;-52
2022/09/04 02:10:58;;;;;;;;;;;;;;;14.71;94.61;95633.44;5115788;28;965;-52
2022/09/04 02:13:34;;;;;;;;;;;;;;;14.66;93.93;95631.25;5115359;28;1020;-52
2022/09/04 02:16:13;;;;;;;;;;;;;;;14.59;95.11;95636.50;5115399;28;1064;-52
2022/09/04 02:18:46;;;;;;;;;;;;;;;14.70;95.05;95632.59;5115471;28;1280;-52
2022/09/04 02:21:12;;;;;;;;;;;;;;;14.44;94.59;95633.66;5115186;28;1115;-52
2022/09/04 02:23:44;;;;;;;;;;;;;;;14.40;94.01;95639.56;5115380;28;1200;-52
2022/09/04 02:26:21;;;;;;;;;;;;;;;14.29;95.15;95638.09;5115075;28;1984;-52
2022/09/04 02:28:50;;;;;;;;;;;;;;;14.29;96.15;95634.56;5115059;28;1445;-52
2022/09/04 02:31:29;;;;;;;;;;;;;;;14.50;96.09;95642.06;5115103;28;976;-52
2022/09/04 02:34:10;;;;;;;;;;;;;;;14.69;95.43;95635.47;5114786;28;1258;-52
2022/09/04 02:36:36;;;;;;;;;;;;;;;14.76;94.46;95647.19;5115047;28;1044;-52
2022/09/04 02:39:20;;;;;;;;;;;;;;;14.72;94.71;95635.09;5114552;28;1081;-52
2022/09/04 02:41:52;;;;;;;;;;;;;;;14.60;94.30;95640.84;5115096;28;1060;-52
2022/09/04 02:44:18;;;;;;;;;;;;;;;14.39;94.25;95635.19;5109657;28;1216;-52
2022/09/04 02:46:59;;;;;;;;;;;;;;;14.32;94.65;95636.88;5094564;28;1905;-52
2022/09/04 02:49:50;;;;;;;;;;;;;;;14.34;94.85;95634.88;5093920;28;1492;-52
2022/09/04 02:52:22;;;;;;;;;;;;;;;14.29;94.78;95637.25;5092800;28;2569;-52
2022/09/04 02:54:51;;;;;;;;;;;;;;;14.42;95.71;95641.06;5093061;28;1060;-52
2022/09/04 02:57:28;;;;;;;;;;;;;;;14.58;94.63;95648.28;5093126;28;999;-52
2022/09/04 03:00:03;;;;;;;;;;;;;;;14.42;95.41;95648.31;5093774;28;1055;-52
2022/09/04 03:02:36;;;;;;;;;;;;;;;14.41;95.47;95641.25;5094228;28;996;-52
2022/09/04 03:05:18;;;;;;;;;;;;;;;14.31;95.33;95644.13;5093876;28;1934;-51
2022/09/04 03:07:50;;;;;;;;;;;;;;;14.17;94.00;95637.63;5093798;28;1108;-51
2022/09/04 03:10:17;;;;;;;;;;;;;;;14.05;95.00;95637.09;5093833;28;1043;-52
2022/09/04 03:12:59;;;;;;;;;;;;;;;13.93;95.30;95640.34;5093935;28;962;-51
2022/09/04 03:15:29;;;;;;;;;;;;;;;14.01;95.45;95643.00;5093629;28;966;-51
2022/09/04 03:17:58;;;;;;;;;;;;;;;14.03;94.25;95641.00;5092795;28;1079;-52
2022/09/04 03:20:26;;;;;;;;;;;;;;;14.14;94.88;95650.56;5093606;28;962;-51
2022/09/04 03:22:58;;;;;;;;;;;;;;;14.31;94.46;95641.44;5093683;28;1029;-51
2022/09/04 03:25:31;;;;;;;;;;;;;;;14.43;93.08;95641.91;5093528;28;1908;-51
2022/09/04 03:27:57;;;;;;;;;;;;;;;14.38;92.76;95645.13;5093466;28;1111;-51
2022/09/04 03:30:24;;;;;;;;;;;;;;;14.40;92.55;95642.25;5075352;28;1098;-51
2022/09/04 03:32:50;;;;;;;;;;;;;;;14.45;93.28;95634.50;5093454;28;1230;-51
2022/09/04 03:35:26;;;;;;;;;;;;;;;14.45;93.37;95639.88;5093592;28;1044;-51
2022/09/04 03:38:06;;;;;;;;;;;;;;;14.43;94.40;95641.91;5093386;28;1040;-51
2022/09/04 03:40:37;;;;;;;;;;;;;;;14.39;94.47;95644.09;5093237;28;965;-51
2022/09/04 03:43:06;;;;;;;;;;;;;;;14.38;94.87;95646.94;5093482;28;1049;-50
2022/09/04 03:45:47;;;;;;;;;;;;;;;14.44;95.06;95654.34;5093609;28;2019;-51
2022/09/04 03:48:13;;;;;;;;;;;;;;;14.33;95.37;95657.41;5092654;28;1953;-51
2022/09/04 03:50:55;;;;;;;;;;;;;;;14.33;94.81;95662.78;5093095;28;1069;-51
2022/09/04 03:53:34;;;;;;;;;;;;;;;14.22;95.07;95659.44;5093431;28;1036;-51
2022/09/04 03:56:03;;;;;;;;;;;;;;;14.10;95.55;95660.81;5093334;28;933;-51
2022/09/04 03:58:36;;;;;;;;;;;;;;;14.21;96.03;95663.16;5093263;28;982;-51
2022/09/04 04:01:11;;;;;;;;;;;;;;;14.32;95.86;95672.69;5093214;28;974;-51
2022/09/04 04:03:37;;;;;;;;;;;;;;;14.36;96.50;95692.00;5093097;28;966;-51
2022/09/04 04:06:17;;;;;;;;;;;;;;;14.46;97.36;95695.38;5093378;28;1995;-51
2022/09/04 04:09:02;;;;;;;;;;;;;;;14.52;97.21;95708.13;5093236;28;977;-50
2022/09/04 04:11:36;;;;;;;;;;;;;;;14.43;95.88;95701.09;5093143;28;1112;-51
2022/09/04 04:14:02;;;;;;;;;;;;;;;14.42;96.02;95700.25;5093158;28;1111;-52
2022/09/04 04:16:31;;;;;;;;;;;;;;;14.43;97.36;95699.22;5093185;28;1988;-52
2022/09/04 04:19:05;;;;;;;;;;;;;;;14.42;97.99;95702.94;5093171;28;1072;-52
2022/09/04 04:21:38;;;;;;;;;;;;;;;14.52;97.63;95712.69;5113829;28;1103;-52
2022/09/04 04:24:11;;;;;;;;;;;;;;;14.64;98.04;95714.00;5113440;28;1052;-52
2022/09/04 04:26:39;;;;;;;;;;;;;;;14.63;98.41;95713.19;5113288;28;1981;-51
2022/09/04 04:29:11;;;;;;;;;;;;;;;14.70;98.43;95723.25;5112807;28;1087;-52
2022/09/04 04:31:43;;;;;;;;;;;;;;;14.71;98.77;95717.69;5113650;28;965;-52
2022/09/04 04:34:23;;;;;;;;;;;;;;;14.91;98.83;95719.97;5112920;28;1119;-51
2022/09/04 04:36:55;;;;;;;;;;;;;;;15.07;97.76;95717.22;5113204;28;1115;-52
2022/09/04 04:39:36;;;;;;;;;;;;;;;15.14;98.09;95717.34;5113034;28;1971;-51
2022/09/04 04:42:23;;;;;;;;;;;;;;;15.17;97.65;95715.16;5113395;28;1137;-51
2022/09/04 04:47:55;;;;;;;;;;;;;;;15.26;98.32;95715.13;5093110;28;1028;-51
2022/09/04 04:50:27;;;;;;;;;;;;;;;15.44;97.70;95721.06;5092279;28;1178;-52
2022/09/04 04:53:17;;;;;;;;;;;;;;;15.54;98.35;95718.19;5092860;28;1052;-51
2022/09/04 04:55:49;;;;;;;;;;;;;;;15.67;97.56;95721.13;5055112;28;1135;-51
2022/09/04 04:58:35;;;;;;;;;;;;;;;15.79;97.22;95732.34;5092641;28;1072;-52
2022/09/04 05:01:08;;;;;;;;;;;;;;;15.94;97.82;95717.06;5093557;28;1310;-52
2022/09/04 05:03:54;;;;;;;;;;;;;;;16.37;96.15;95711.13;5096382;28;1025;-53
2022/09/04 05:06:46;;;;;;;;;;;;;;;16.50;94.56;95724.00;5082047;28;2061;-52
2022/09/04 05:09:13;;;;;;;;;;;;;;;16.29;96.02;95730.09;5091969;28;1228;-52
2022/09/04 05:11:55;;;;;;;;;;;;;;;16.17;97.34;95729.69;5096443;28;970;-51
2022/09/04 05:14:27;;;;;;;;;;;;;;;16.44;96.12;95727.44;5095755;28;1033;-51
2022/09/04 05:17:12;;;;;;;;;;;;;;;16.64;94.36;95733.13;5096280;28;1015;-51
2022/09/04 05:19:48;;;;;;;;;;;;;;;16.66;93.42;95733.81;5095819;28;1019;-50
2022/09/04 05:22:32;;;;;;;;;;;;;;;16.70;91.24;95725.13;5095914;28;1020;-50
2022/09/04 05:24:58;;;;;;;;;;;;;;;16.70;92.14;95730.53;5095580;28;1994;-51
2022/09/04 05:27:40;;;;;;;;;;;;;;;16.86;89.50;95736.81;5095807;28;1049;-51
2022/09/04 05:30:09;;;;;;;;;;;;;;;16.92;89.89;95731.53;5095688;28;960;-51
2022/09/04 05:32:44;;;;;;;;;;;;;;;17.01;87.76;95739.53;5095846;28;1833;-51
2022/09/04 05:35:10;;;;;;;;;;;;;;;17.20;87.57;95743.50;5095489;28;995;-51
2022/09/04 05:37:36;;;;;;;;;;;;;;;17.22;86.75;95745.00;5095872;28;969;-50
2022/09/04 05:40:05;;;;;;;;;;;;;;;17.26;87.11;95737.34;5095422;28;1027;-52
2022/09/04 05:42:41;;;;;;;;;;;;;;;17.18;88.34;95730.19;5095919;28;1062;-51
2022/09/04 05:45:07;;;;;;;;;;;;;;;17.07;88.62;95725.25;5095459;28;1913;-51
2022/09/04 05:47:52;;;;;;;;;;;;;;;17.10;87.70;95724.91;5095535;28;1053;-51
2022/09/04 05:50:36;;;;;;;;;;;;;;;17.37;87.72;95704.44;5094878;28;1088;-51
2022/09/04 05:53:22;;;;;;;;;;;;;;;17.65;85.03;95720.78;5095475;28;965;-51
2022/09/04 05:55:48;;;;;;;;;;;;;;;17.84;84.29;95723.88;5095226;28;965;-51
2022/09/04 05:58:28;;;;;;;;;;;;;;;18.10;82.96;95710.66;5095471;28;969;-51
2022/09/04 06:01:13;;;;;;;;;;;;;;;18.25;81.98;95720.53;5095181;28;1073;-51
2022/09/04 06:03:48;;;;;;;;;;;;;;;18.25;82.93;95723.25;5095489;28;1024;-51
2022/09/04 06:06:34;;;;;;;;;;;;;;;18.24;84.27;95708.88;5094881;28;1913;-51
2022/09/04 06:09:06;;;;;;;;;;;;;;;18.24;83.24;95703.47;5094971;28;962;-51
2022/09/04 06:11:50;;;;;;;;;;;;;;;18.45;83.43;95699.88;5094092;28;1126;-51
2022/09/04 06:14:35;;;;;;;;;;;;;;;18.63;82.73;95704.81;5095062;28;1030;-51
2022/09/04 06:17:01;;;;;;;;;;;;;;;18.81;82.69;95711.63;5094862;28;1009;-51
2022/09/04 06:19:30;;;;;;;;;;;;;;;19.00;81.66;95704.66;5094475;28;1653;-52
2022/09/04 06:22:02;;;;;;;;;;;;;;;19.20;80.72;95704.72;5094943;28;988;-51
2022/09/04 06:24:28;;;;;;;;;;;;;;;19.45;78.45;95695.06;5094736;28;1024;-51
2022/09/04 06:27:06;;;;;;;;;;;;;;;19.57;79.13;95700.72;5094601;28;1980;-52
2022/09/04 06:29:41;;;;;;;;;;;;;;;19.61;79.21;95696.56;5094628;28;988;-51
2022/09/04 06:32:19;;;;;;;;;;;;;;;19.93;77.89;95710.44;5094557;28;1182;-52
2022/09/04 06:35:22;;;;;;;;;;;;;;;20.45;73.51;95711.53;5094488;28;1111;-50
2022/09/04 06:37:51;;;;;;;;;;;;;;;21.06;71.97;95705.00;5012451;28;1167;-50
2022/09/04 06:40:19;;;;;;;;;;;;;;;22.46;66.80;95702.63;5078352;28;1057;-51
2022/09/04 06:42:55;;;;;;;;;;;;;;;24.54;60.24;95702.69;5094407;28;1017;-51
2022/09/04 06:45:27;;;;;;;;;;;;;;;27.30;51.00;95711.13;5094151;28;1905;-52
2022/09/04 06:48:12;;;;;;;;;;;;;;;29.52;44.23;95715.81;5094256;28;1084;-52
2022/09/04 06:50:44;;;;;;;;;;;;;;;31.42;40.46;95722.56;5094078;28;1088;-53
2022/09/04 06:53:20;;;;;;;;;;;;;;;32.09;37.07;95725.94;5094409;28;1059;-53
2022/09/04 06:55:52;;;;;;;;;;;;;;;32.93;37.34;95732.63;5094038;28;1084;-53
2022/09/04 06:58:38;;;;;;;;;;;;;;;34.11;35.30;95737.00;5094314;28;1060;-52
2022/09/04 07:01:10;;;;;;;;;;;;;;;34.56;34.42;95732.81;5093447;28;1875;-51
2022/09/04 07:03:36;;;;;;;;;;;;;;;35.19;32.34;95737.16;5093191;28;1361;-51
2022/09/04 07:06:02;;;;;;;;;;;;;;;35.00;33.47;95727.97;5093650;28;1999;-51
2022/09/04 07:08:34;;;;;;;;;;;;;;;35.58;32.00;95715.59;5094305;28;1039;-52
2022/09/04 07:11:06;;;;;;;;;;;;;;;35.81;31.83;95713.78;5093853;28;1148;-51
2022/09/04 07:13:49;;;;;;;;;;;;;;;36.20;30.31;95726.38;5093813;28;1076;-54
2022/09/04 07:16:24;;;;;;;;;;;;;;;36.01;31.22;95725.63;5093808;28;953;-51
2022/09/04 07:19:09;;;;;;;;;;;;;;;36.04;31.62;95713.88;5093938;28;1049;-51
2022/09/04 07:21:57;;;;;;;;;;;;;;;35.58;32.65;95708.06;5093589;28;1025;-51
2022/09/04 07:24:28;;;;;;;;;;;;;;;34.56;32.73;95707.00;5098496;28;1210;-51
2022/09/04 07:26:54;;;;;;;;;;;;;;;33.43;35.14;95698.13;5113792;28;1906;-51
2022/09/04 07:29:34;;;;;;;;;;;;;;;32.45;37.64;95686.19;5114266;28;1016;-51
2022/09/04 07:32:00;;;;;;;;;;;;;;;30.03;40.90;95682.16;5113865;28;1039;-52
2022/09/04 07:34:32;;;;;;;;;;;;;;;28.01;46.33;95684.56;5113424;28;1060;-50
2022/09/04 07:36:58;;;;;;;;;;;;;;;27.08;50.18;95682.53;5114012;28;1103;-50
2022/09/04 07:39:27;;;;;;;;;;;;;;;26.66;50.24;95685.75;5114082;28;958;-51
2022/09/04 07:41:57;;;;;;;;;;;;;;;25.90;51.97;95694.22;5113663;28;1040;-51
2022/09/04 07:44:35;;;;;;;;;;;;;;;25.84;52.97;95703.41;5107454;28;1168;-51
2022/09/04 07:47:13;;;;;;;;;;;;;;;25.81;53.47;95698.41;5093156;28;1983;-51
2022/09/04 07:49:42;;;;;;;;;;;;;;;25.73;56.62;95704.28;5093737;28;1013;-50
2022/09/04 07:52:28;;;;;;;;;;;;;;;25.21;56.33;95698.75;5093444;28;1032;-50
2022/09/04 07:55:13;;;;;;;;;;;;;;;25.04;56.30;95699.50;5092967;28;1762;-51
2022/09/04 07:57:48;;;;;;;;;;;;;;;24.98;57.82;95700.44;5093092;28;1069;-50
2022/09/04 08:00:19;;;;;;;;;;;;;;;25.02;58.67;95700.81;5093248;28;1111;-51
2022/09/04 08:03:04;;;;;;;;;;;;;;;25.20;58.31;95697.13;5093437;28;966;-51
2022/09/04 08:05:48;;;;;;;;;;;;;;;25.31;57.65;95694.38;5093254;28;1910;-51
2022/09/04 08:08:33;;;;;;;;;;;;;;;25.16;59.41;95696.75;5093317;28;1066;-51
2022/09/04 08:11:01;;;;;;;;;;;;;;;25.11;56.60;95711.13;5093158;28;1048;-51
2022/09/04 08:13:36;;;;;;;;;;;;;;;25.02;60.20;95707.09;5093249;28;894;-51
2022/09/04 08:16:06;;;;;;;;;;;;;;;25.19;58.80;95706.38;5092380;28;1057;-50
2022/09/04 08:18:52;;;;;;;;;;;;;;;25.28;56.66;95711.28;5092970;28;1028;-51
2022/09/04 08:21:34;;;;;;;;;;;;;;;25.16;58.46;95720.56;5093074;28;1054;-50
2022/09/04 08:24:06;;;;;;;;;;;;;;;24.87;60.08;95704.88;5093029;28;1036;-50
2022/09/04 08:26:32;;;;;;;;;;;;;;;24.65;59.47;95701.06;5096483;28;1922;-51
2022/09/04 08:29:05;;;;;;;;;;;;;;;24.52;60.76;95711.13;5113632;28;1055;-51
2022/09/04 08:32:10;;;;;;;;;;;;;;;24.55;59.83;95704.38;5113511;28;996;-50
2022/09/04 08:34:42;;;;;;;;;;;;;;;24.41;62.49;95714.63;5051261;28;1089;-50
2022/09/04 08:37:40;;;;;;;;;;;;;;;24.47;59.74;95710.97;5053810;28;1010;-50
2022/09/04 08:40:25;;;;;;;;;;;;;;;24.14;59.85;95711.47;5072482;28;1230;-50
2022/09/04 08:42:52;;;;;;;;;;;;;;;24.25;62.30;95713.41;5117112;28;1216;-50
2022/09/04 08:45:34;;;;;;;;;;;;;;;24.53;60.21;95714.72;5130750;27;1930;-51
2022/09/04 08:48:18;;;;;;;;;;;;;;;24.78;61.63;95709.03;5137065;27;1169;-51
2022/09/04 08:50:50;;;;;;;;;;;;;;;25.06;60.43;95710.19;5136272;27;1040;-50
2022/09/04 08:53:27;;;;;;;;;;;;;;;25.13;61.73;95710.91;5136868;27;1024;-51
2022/09/04 08:56:17;;;;;;;;;;;;;;;25.06;60.69;95696.50;5137235;27;1059;-50
2022/09/04 08:58:52;;;;;;;;;;;;;;;25.02;62.33;95693.41;5136824;27;1080;-49
2022/09/04 09:01:37;;;;;;;;;;;;;;;25.07;60.60;95695.47;5137271;27;1081;-51
2022/09/04 09:04:06;;;;;;;;;;;;;;;24.89;60.26;95685.47;5137024;27;1039;-50
2022/09/04 09:06:47;;;;;;;;;;;;;;;24.74;60.54;95677.75;5136765;27;1996;-50
2022/09/04 09:09:32;;;;;;;;;;;;;;;24.87;61.58;95682.13;5137306;27;1032;-52
2022/09/04 09:12:24;;;;;;;;;;;;;;;25.12;62.10;95690.09;5136955;27;1956;-50
2022/09/04 09:15:05;;;;;;;;;;;;;;;25.32;60.88;95692.47;5132217;27;1681;-51
2022/09/04 09:17:38;;;;;;;;;;;;;;;25.35;59.27;95686.53;5136910;27;1209;-51
2022/09/04 09:20:04;;;;;;;;;;;;;;;25.36;59.68;95677.22;5137251;27;1047;-50
2022/09/04 09:22:37;;;;;;;;;;;;;;;25.44;61.67;95676.03;5137067;27;992;-50
2022/09/04 09:25:10;;;;;;;;;;;;;;;25.49;59.42;95673.41;5137047;27;1909;-51
2022/09/04 09:27:42;;;;;;;;;;;;;;;25.55;60.14;95666.13;5136607;27;1214;-50
2022/09/04 09:30:19;;;;;;;;;;;;;;;25.51;59.28;95652.91;5136982;27;1112;-51
2022/09/04 09:32:49;;;;;;;;;;;;;;;25.64;60.25;95650.97;5130943;27;1096;-51
2022/09/04 09:35:35;;;;;;;;;;;;;;;25.63;61.61;95641.94;5116224;28;1023;-51
2022/09/04 09:38:20;;;;;;;;;;;;;;;25.60;60.39;95647.06;5115912;28;1080;-50
2022/09/04 09:40:46;;;;;;;;;;;;;;;25.35;60.02;95652.88;5116369;28;1114;-50
2022/09/04 09:43:12;;;;;;;;;;;;;;;25.42;62.04;95650.78;5116082;28;1028;-50
2022/09/04 09:45:47;;;;;;;;;;;;;;;25.39;58.25;95638.44;5099180;28;1995;-50
2022/09/04 09:48:22;;;;;;;;;;;;;;;25.46;60.23;95636.41;5095013;28;1053;-52
2022/09/04 09:51:07;;;;;;;;;;;;;;;25.70;56.43;95633.56;5095205;28;1208;-50
2022/09/04 09:53:52;;;;;;;;;;;;;;;25.53;60.11;95630.75;5109267;28;1372;-50
2022/09/04 09:56:21;;;;;;;;;;;;;;;25.55;60.62;95636.00;5115666;28;1890;-48
2022/09/04 09:58:46;;;;;;;;;;;;;;;25.71;58.68;95635.25;5115487;28;1044;-48
2022/09/04 10:01:23;;;;;;;;;;;;;;;25.77;58.34;95639.72;5115781;28;1040;-48
2022/09/04 10:03:58;;;;;;;;;;;;;;;25.88;59.14;95636.09;5115116;28;1079;-48
2022/09/04 10:06:44;;;;;;;;;;;;;;;26.00;58.10;95640.72;5115412;28;1910;-48
2022/09/04 10:09:43;;;;;;;;;;;;;;;26.13;57.44;95628.63;5115284;28;1049;-49
2022/09/04 10:12:09;;;;;;;;;;;;;;;26.32;58.66;95629.22;5070051;28;1259;-48
2022/09/04 10:14:41;;;;;;;;;;;;;;;26.21;57.92;95628.22;5115226;28;1024;-48
2022/09/04 10:17:21;;;;;;;;;;;;;;;26.25;57.15;95616.50;5115552;28;960;-48
2022/09/04 10:19:50;;;;;;;;;;;;;;;26.24;57.53;95611.28;5115033;28;977;-48
2022/09/04 10:22:25;;;;;;;;;;;;;;;26.20;59.22;95613.69;5115186;28;1020;-48
2022/09/04 10:25:03;;;;;;;;;;;;;;;26.18;55.71;95610.38;5114603;28;1993;-51
2022/09/04 10:27:48;;;;;;;;;;;;;;;26.06;56.81;95585.75;5115262;28;1623;-50
2022/09/04 10:30:14;;;;;;;;;;;;;;;26.18;56.93;95593.91;5114826;28;1035;-49
2022/09/04 10:33:05;;;;;;;;;;;;;;;26.29;55.76;95605.84;5108807;28;2142;-49
2022/09/04 10:35:38;;;;;;;;;;;;;;;26.22;58.30;95603.31;5112806;28;1218;-49
2022/09/04 10:38:04;;;;;;;;;;;;;;;26.38;55.20;95600.81;5115176;28;961;-49
2022/09/04 10:40:59;;;;;;;;;;;;;;;26.38;52.34;95579.69;5114803;28;1000;-49
2022/09/04 10:43:33;;;;;;;;;;;;;;;26.32;51.88;95586.19;5031189;28;1860;-58
2022/09/04 10:46:07;;;;;;;;;;;;;;;26.41;51.85;95587.44;5114026;28;1933;-50
2022/09/04 10:48:33;;;;;;;;;;;;;;;26.47;54.53;95588.34;5115060;28;1036;-49
2022/09/04 10:51:04;;;;;;;;;;;;;;;26.48;52.04;95581.75;5114645;28;981;-48
2022/09/04 10:53:42;;;;;;;;;;;;;;;26.64;52.83;95585.63;5114706;28;1084;-49
2022/09/04 10:56:28;;;;;;;;;;;;;;;26.81;54.22;95583.66;5106875;28;1922;-49
2022/09/04 10:58:57;;;;;;;;;;;;;;;26.74;54.66;95580.25;5094257;28;1016;-49
2022/09/04 11:01:46;;;;;;;;;;;;;;;26.55;52.13;95576.94;5096712;28;1901;-49
2022/09/04 11:04:27;;;;;;;;;;;;;;;26.47;53.22;95564.50;5090567;28;2105;-48
2022/09/04 11:07:08;;;;;;;;;;;;;;;26.46;54.36;95565.59;5099572;28;1994;-48
2022/09/04 11:09:35;;;;;;;;;;;;;;;26.49;55.13;95562.31;5093822;28;954;-48
2022/09/04 11:12:08;;;;;;;;;;;;;;;26.55;52.70;95559.66;5101374;28;1518;-49
2022/09/04 11:15:06;;;;;;;;;;;;;;;26.58;51.83;95551.75;5101749;28;1310;-49
2022/09/04 11:17:51;;;;;;;;;;;;;;;26.53;53.26;95553.59;5063200;28;1427;-49
2022/09/04 11:20:36;;;;;;;;;;;;;;;26.65;52.89;95554.34;5114171;28;1240;-49
2022/09/04 11:23:14;;;;;;;;;;;;;;;26.70;54.17;95540.72;5113942;28;1314;-48
2022/09/04 11:25:46;;;;;;;;;;;;;;;26.58;51.64;95549.03;5114075;28;1986;-48
2022/09/04 11:28:30;;;;;;;;;;;;;;;26.46;52.00;95540.06;5114183;28;1029;-49
2022/09/04 11:31:04;;;;;;;;;;;;;;;26.48;51.79;95537.91;5114034;28;949;-48
2022/09/04 11:37:02;;;;;;;;;;;;;;;26.74;55.01;95536.38;4906219;28;1945;-48
2022/09/04 11:39:39;;;;;;;;;;;;;;;26.67;53.44;95541.22;5093613;28;966;-48
2022/09/04 11:42:11;;;;;;;;;;;;;;;26.57;54.52;95535.56;5093369;28;1029;-48
2022/09/04 11:44:59;;;;;;;;;;;;;;;26.62;54.93;95536.50;5104580;28;2329;-48
2022/09/04 11:47:44;;;;;;;;;;;;;;;26.57;51.37;95528.16;5110128;28;2740;-48
2022/09/04 11:50:18;;;;;;;;;;;;;;;26.60;52.59;95522.22;5112438;28;1237;-48
2022/09/04 11:52:54;;;;;;;;;;;;;;;26.64;53.38;95519.78;5112693;28;1133;-48
2022/09/04 11:55:21;;;;;;;;;;;;;;;26.57;53.38;95508.16;5112593;28;858;-52
2022/09/04 11:58:06;;;;;;;;;;;;;;;26.55;54.34;95513.88;5103770;28;1663;-49
2022/09/04 12:00:41;;;;;;;;;;;;;;;26.58;53.02;95513.38;5093233;28;1027;-49
2022/09/04 12:03:07;;;;;;;;;;;;;;;26.59;54.38;95512.31;5093064;28;1091;-48
2022/09/04 12:05:39;;;;;;;;;;;;;;;26.69;54.65;95500.66;5092915;28;1984;-49
2022/09/04 12:08:08;;;;;;;;;;;;;;;26.78;54.58;95490.91;5092677;28;1280;-49
2022/09/04 12:10:42;;;;;;;;;;;;;;;26.80;55.32;95490.66;5102950;28;2160;-48
2022/09/04 12:13:13;;;;;;;;;;;;;;;26.84;54.93;95491.78;5106029;28;1534;-48
2022/09/04 12:15:39;;;;;;;;;;;;;;;26.79;53.10;95489.00;5103241;28;1481;-48
2022/09/04 12:18:20;;;;;;;;;;;;;;;26.76;53.09;95495.81;5096556;28;1509;-49
2022/09/04 12:21:05;;;;;;;;;;;;;;;26.72;54.08;95488.34;5096893;28;1012;-48
2022/09/04 12:23:58;;;;;;;;;;;;;;;26.74;53.37;95483.44;5097245;28;1060;-48
2022/09/04 12:26:33;;;;;;;;;;;;;;;26.63;51.20;95491.53;5096832;28;1984;-48
2022/09/04 12:29:25;;;;;;;;;;;;;;;26.73;53.58;95484.50;5096974;28;1141;-48
2022/09/04 12:31:51;;;;;;;;;;;;;;;26.79;53.08;95476.09;5074813;28;1358;-49
2022/09/04 12:34:21;;;;;;;;;;;;;;;26.71;52.31;95473.78;5103765;28;1553;-50
2022/09/04 12:36:51;;;;;;;;;;;;;;;26.71;53.61;95475.72;5096668;28;1237;-48
2022/09/04 12:39:35;;;;;;;;;;;;;;;26.74;53.36;95470.56;5096769;28;1087;-48
2022/09/04 12:42:21;;;;;;;;;;;;;;;26.83;52.73;95480.00;5096699;28;1115;-48
2022/09/04 12:44:57;;;;;;;;;;;;;;;26.91;53.49;95475.97;5096960;28;1169;-49
2022/09/04 12:47:40;;;;;;;;;;;;;;;26.95;52.36;95474.38;5096227;28;1773;-48
2022/09/04 12:50:09;;;;;;;;;;;;;;;27.01;52.42;95472.50;5104655;28;1603;-48
2022/09/04 12:52:50;;;;;;;;;;;;;;;27.03;51.99;95476.69;5096704;28;1009;-48
2022/09/04 12:55:22;;;;;;;;;;;;;;;26.97;53.65;95469.44;5096575;28;1016;-48
2022/09/04 12:58:06;;;;;;;;;;;;;;;26.90;51.73;95465.25;5096316;28;1220;-48
2022/09/04 13:00:39;;;;;;;;;;;;;;;26.86;52.94;95462.19;5096333;28;1020;-48
2022/09/04 13:03:08;;;;;;;;;;;;;;;26.86;51.10;95471.25;5096373;28;1028;-50
2022/09/04 13:05:41;;;;;;;;;;;;;;;26.85;53.13;95469.59;5078214;28;1906;-51
2022/09/04 13:08:33;;;;;;;;;;;;;;;26.78;48.96;95470.88;5096252;28;962;-51
2022/09/04 13:11:12;;;;;;;;;;;;;;;26.77;50.15;95467.31;5096223;28;1103;-51
2022/09/04 13:13:50;;;;;;;;;;;;;;;26.88;51.40;95462.75;5096231;28;1064;-52
2022/09/04 13:16:26;;;;;;;;;;;;;;;26.92;49.72;95466.66;5095946;28;1033;-52
2022/09/04 13:19:02;;;;;;;;;;;;;;;26.97;49.83;95460.41;5095998;28;1099;-52
2022/09/04 13:21:43;;;;;;;;;;;;;;;27.00;51.51;95460.72;5094794;28;1037;-50
2022/09/04 13:24:26;;;;;;;;;;;;;;;27.11;52.81;95458.91;5096281;28;1048;-52
2022/09/04 13:27:14;;;;;;;;;;;;;;;27.12;53.00;95466.06;5095862;28;1910;-53
2022/09/04 13:30:07;;;;;;;;;;;;;;;27.03;53.22;95459.34;5100957;28;1340;-51
2022/09/04 13:32:51;;;;;;;;;;;;;;;26.95;51.58;95468.06;5112564;28;1778;-51
2022/09/04 13:35:50;;;;;;;;;;;;;;;26.92;50.65;95466.66;5116318;28;1254;-50
2022/09/04 13:38:16;;;;;;;;;;;;;;;26.91;51.65;95465.00;5071060;28;1142;-50
2022/09/04 13:41:01;;;;;;;;;;;;;;;26.96;52.12;95469.69;5116498;28;1032;-50
2022/09/04 13:43:41;;;;;;;;;;;;;;;26.96;52.24;95465.06;5116128;28;1032;-50
2022/09/04 13:46:20;;;;;;;;;;;;;;;26.97;51.83;95469.44;5095517;28;1914;-50
2022/09/04 13:48:51;;;;;;;;;;;;;;;27.04;51.18;95474.75;5095381;28;1150;-51
2022/09/04 13:51:21;;;;;;;;;;;;;;;27.10;51.95;95473.72;5077514;28;769;-52